createdAt,value
2018-06-29T00:00:01.750Z,80.20
2018-06-29T00:00:32.871Z,80.70
2018-06-29T00:01:04.075Z,80.70
2018-06-29T00:01:35.197Z,80.70
2018-06-29T00:02:06.326Z,80.70
2018-06-29T00:02:37.448Z,80.70
2018-06-29T00:03:08.676Z,80.70
2018-06-29T00:03:39.721Z,80.70
2018-06-29T00:04:42.365Z,80.70
2018-06-29T00:05:13.480Z,80.70
2018-06-29T00:05:44.588Z,80.70
2018-06-29T00:06:15.698Z,80.70
2018-06-29T00:06:46.816Z,80.70
2018-06-29T00:07:17.929Z,80.70
2018-06-29T00:07:49.040Z,80.70
2018-06-29T00:08:20.179Z,80.70
2018-06-29T00:08:51.295Z,80.70
2018-06-29T00:09:22.411Z,80.00
2018-06-29T00:09:53.535Z,80.70
2018-06-29T00:10:24.645Z,80.70
2018-06-29T00:10:55.756Z,80.70
2018-06-29T00:11:26.864Z,80.70
2018-06-29T00:11:57.976Z,80.70
2018-06-29T00:12:29.094Z,80.70
2018-06-29T00:13:00.212Z,80.70
2018-06-29T00:13:31.354Z,80.70
2018-06-29T00:14:02.467Z,80.70
2018-06-29T00:14:33.651Z,80.70
2018-06-29T00:15:04.773Z,80.70
2018-06-29T00:15:35.895Z,80.70
2018-06-29T00:16:07.004Z,80.70
2018-06-29T00:16:38.122Z,80.70
2018-06-29T00:17:09.247Z,81.50
2018-06-29T00:17:40.368Z,80.70
2018-06-29T00:18:11.479Z,80.70
2018-06-29T00:18:42.616Z,80.70
2018-06-29T00:19:13.732Z,80.70
2018-06-29T00:19:44.970Z,80.70
2018-06-29T00:20:16.085Z,80.70
2018-06-29T00:20:47.201Z,80.70
2018-06-29T00:21:49.820Z,80.80
2018-06-29T00:22:20.933Z,80.70
2018-06-29T00:22:52.049Z,80.70
2018-06-29T00:23:23.185Z,80.70
2018-06-29T00:23:54.302Z,80.70
2018-06-29T00:24:25.417Z,80.70
2018-06-29T00:24:56.611Z,80.70
2018-06-29T00:25:27.660Z,80.70
2018-06-29T00:26:30.324Z,80.90
2018-06-29T00:27:01.437Z,80.70
2018-06-29T00:27:32.556Z,80.70
2018-06-29T00:28:03.669Z,80.70
2018-06-29T00:28:34.864Z,81.50
2018-06-29T00:29:05.972Z,80.70
2018-06-29T00:29:37.084Z,80.70
2018-06-29T00:30:08.221Z,80.70
2018-06-29T00:30:39.344Z,80.70
2018-06-29T00:31:10.456Z,80.70
2018-06-29T00:31:42.173Z,80.70
2018-06-29T00:32:13.337Z,80.70
2018-06-29T00:32:44.524Z,80.70
2018-06-29T00:33:15.661Z,80.70
2018-06-29T00:33:46.895Z,80.70
2018-06-29T00:34:18.064Z,80.70
2018-06-29T00:34:49.172Z,80.70
2018-06-29T00:35:20.284Z,80.80
2018-06-29T00:35:51.396Z,80.80
2018-06-29T00:36:22.534Z,80.70
2018-06-29T00:36:53.644Z,80.80
2018-06-29T00:37:24.814Z,80.80
2018-06-29T00:37:55.892Z,80.80
2018-06-29T00:38:27.027Z,81.60
2018-06-29T00:39:29.649Z,80.80
2018-06-29T00:40:01.172Z,80.80
2018-06-29T00:40:32.296Z,80.80
2018-06-29T00:41:03.413Z,80.80
2018-06-29T00:41:34.593Z,80.80
2018-06-29T00:42:05.681Z,80.80
2018-06-29T00:42:36.797Z,80.80
2018-06-29T00:43:07.904Z,80.80
2018-06-29T00:43:39.036Z,80.80
2018-06-29T00:44:10.141Z,80.80
2018-06-29T00:44:41.256Z,80.80
2018-06-29T00:45:12.365Z,80.80
2018-06-29T00:45:43.478Z,80.80
2018-06-29T00:46:14.589Z,80.80
2018-06-29T00:46:45.693Z,80.80
2018-06-29T00:47:16.804Z,80.80
2018-06-29T00:47:47.930Z,80.80
2018-06-29T00:48:19.045Z,80.80
2018-06-29T00:48:50.181Z,80.80
2018-06-29T00:49:21.295Z,80.80
2018-06-29T00:49:52.408Z,80.80
2018-06-29T00:50:23.528Z,80.80
2018-06-29T00:50:54.636Z,80.90
2018-06-29T00:51:25.752Z,80.90
2018-06-29T00:51:56.868Z,80.90
2018-06-29T00:52:27.986Z,80.80
2018-06-29T00:52:59.100Z,80.80
2018-06-29T00:53:30.209Z,80.80
2018-06-29T00:54:01.352Z,80.90
2018-06-29T00:54:32.487Z,80.90
2018-06-29T00:55:03.609Z,80.90
2018-06-29T00:55:34.720Z,80.90
2018-06-29T00:56:05.839Z,80.90
2018-06-29T00:56:36.953Z,80.90
2018-06-29T00:57:08.067Z,80.20
2018-06-29T00:57:39.175Z,80.90
2018-06-29T00:58:10.284Z,80.90
2018-06-29T00:58:41.429Z,80.90
2018-06-29T00:59:12.549Z,80.90
2018-06-29T00:59:43.660Z,80.90
2018-06-29T01:00:46.311Z,80.90
2018-06-29T01:01:17.415Z,80.90
2018-06-29T01:01:48.531Z,80.80
2018-06-29T01:02:19.644Z,80.90
2018-06-29T01:02:50.756Z,80.90
2018-06-29T01:03:21.864Z,80.90
2018-06-29T01:03:53.001Z,80.90
2018-06-29T01:04:24.124Z,80.90
2018-06-29T01:04:55.238Z,80.90
2018-06-29T01:05:26.351Z,81.00
2018-06-29T01:05:57.468Z,80.90
2018-06-29T01:06:28.585Z,80.90
2018-06-29T01:06:59.697Z,80.90
2018-06-29T01:07:30.869Z,80.90
2018-06-29T01:08:01.954Z,80.90
2018-06-29T01:08:33.070Z,80.90
2018-06-29T01:09:04.206Z,80.90
2018-06-29T01:09:35.317Z,80.90
2018-06-29T01:10:06.426Z,80.90
2018-06-29T01:10:37.540Z,80.90
2018-06-29T01:11:08.654Z,80.90
2018-06-29T01:11:39.769Z,80.90
2018-06-29T01:12:10.889Z,80.90
2018-06-29T01:12:42.006Z,80.90
2018-06-29T01:13:13.120Z,80.90
2018-06-29T01:13:44.233Z,80.90
2018-06-29T01:14:15.384Z,80.90
2018-06-29T01:14:46.493Z,80.90
2018-06-29T01:15:17.609Z,81.20
2018-06-29T01:15:48.721Z,80.90
2018-06-29T01:16:19.828Z,80.90
2018-06-29T01:16:50.938Z,80.90
2018-06-29T01:17:22.064Z,80.90
2018-06-29T01:17:53.199Z,80.90
2018-06-29T01:18:24.344Z,80.90
2018-06-29T01:18:55.475Z,80.90
2018-06-29T01:19:26.592Z,80.90
2018-06-29T01:19:57.704Z,80.90
2018-06-29T01:20:28.817Z,81.00
2018-06-29T01:20:59.932Z,81.00
2018-06-29T01:21:31.040Z,80.90
2018-06-29T01:22:02.152Z,81.00
2018-06-29T01:22:33.267Z,80.90
2018-06-29T01:23:04.381Z,81.00
2018-06-29T01:23:35.492Z,80.90
2018-06-29T01:24:06.628Z,81.00
2018-06-29T01:24:37.732Z,81.00
2018-06-29T01:25:08.848Z,81.00
2018-06-29T01:25:39.972Z,81.00
2018-06-29T01:26:11.080Z,81.00
2018-06-29T01:26:42.193Z,81.00
2018-06-29T01:27:13.307Z,81.00
2018-06-29T01:27:44.417Z,81.00
2018-06-29T01:28:15.540Z,81.00
2018-06-29T01:28:46.651Z,81.00
2018-06-29T01:29:17.800Z,81.00
2018-06-29T01:29:48.912Z,80.90
2018-06-29T01:30:20.026Z,81.00
2018-06-29T01:30:51.144Z,81.00
2018-06-29T01:31:22.257Z,81.00
2018-06-29T01:31:53.372Z,81.00
2018-06-29T01:32:24.476Z,81.00
2018-06-29T01:32:55.588Z,80.90
2018-06-29T01:33:26.702Z,81.00
2018-06-29T01:33:57.848Z,81.00
2018-06-29T01:34:28.960Z,81.00
2018-06-29T01:35:00.079Z,81.00
2018-06-29T01:35:31.204Z,81.00
2018-06-29T01:36:02.323Z,81.00
2018-06-29T01:36:33.436Z,80.90
2018-06-29T01:37:04.548Z,81.00
2018-06-29T01:37:35.662Z,81.50
2018-06-29T01:38:06.771Z,81.00
2018-06-29T01:38:37.876Z,81.00
2018-06-29T01:39:09.012Z,81.00
2018-06-29T01:39:40.124Z,81.00
2018-06-29T01:40:11.236Z,81.00
2018-06-29T01:40:42.344Z,81.00
2018-06-29T01:41:13.457Z,81.00
2018-06-29T01:41:44.564Z,81.00
2018-06-29T01:42:15.680Z,81.00
2018-06-29T01:42:46.805Z,81.00
2018-06-29T01:43:17.915Z,81.00
2018-06-29T01:43:49.021Z,81.00
2018-06-29T01:44:20.155Z,81.00
2018-06-29T01:44:51.268Z,81.00
2018-06-29T01:45:22.378Z,81.00
2018-06-29T01:45:53.493Z,81.00
2018-06-29T01:46:24.604Z,81.00
2018-06-29T01:46:55.722Z,81.00
2018-06-29T01:47:26.836Z,81.00
2018-06-29T01:47:57.950Z,81.10
2018-06-29T01:48:29.055Z,81.10
2018-06-29T01:49:00.173Z,81.20
2018-06-29T01:49:31.312Z,81.10
2018-06-29T01:50:02.423Z,81.10
2018-06-29T01:51:05.301Z,81.10
2018-06-29T01:51:36.412Z,81.00
2018-06-29T01:52:07.553Z,81.10
2018-06-29T01:52:38.730Z,81.10
2018-06-29T01:53:09.790Z,81.10
2018-06-29T01:53:40.895Z,81.10
2018-06-29T01:54:12.038Z,81.50
2018-06-29T01:54:43.154Z,81.10
2018-06-29T01:55:14.269Z,81.00
2018-06-29T01:55:45.384Z,81.00
2018-06-29T01:56:16.497Z,81.00
2018-06-29T01:56:47.613Z,81.00
2018-06-29T01:57:18.724Z,81.10
2018-06-29T01:57:49.836Z,81.00
2018-06-29T01:58:20.952Z,81.30
2018-06-29T01:58:52.071Z,81.00
2018-06-29T01:59:23.209Z,81.00
2018-06-29T01:59:54.327Z,81.00
2018-06-29T02:00:25.440Z,81.00
2018-06-29T02:00:56.547Z,81.00
2018-06-29T02:01:27.656Z,81.00
2018-06-29T02:01:58.772Z,81.10
2018-06-29T02:02:29.881Z,81.20
2018-06-29T02:03:00.992Z,81.10
2018-06-29T02:03:32.104Z,81.10
2018-06-29T02:04:03.216Z,81.10
2018-06-29T02:04:34.328Z,81.00
2018-06-29T02:05:05.444Z,81.00
2018-06-29T02:05:36.552Z,81.00
2018-06-29T02:06:07.673Z,81.00
2018-06-29T02:06:38.788Z,81.00
2018-06-29T02:07:09.904Z,81.10
2018-06-29T02:07:41.021Z,81.10
2018-06-29T02:08:12.147Z,81.10
2018-06-29T02:08:43.256Z,81.20
2018-06-29T02:09:14.372Z,81.10
2018-06-29T02:09:45.480Z,81.00
2018-06-29T02:10:16.592Z,81.10
2018-06-29T02:10:47.704Z,81.10
2018-06-29T02:11:18.820Z,81.10
2018-06-29T02:11:49.932Z,81.10
2018-06-29T02:12:21.049Z,81.10
2018-06-29T02:12:52.155Z,81.10
2018-06-29T02:13:23.273Z,81.10
2018-06-29T02:13:54.380Z,81.10
2018-06-29T02:14:25.526Z,81.10
2018-06-29T02:14:56.644Z,81.10
2018-06-29T02:15:27.755Z,81.10
2018-06-29T02:15:58.876Z,81.10
2018-06-29T02:16:29.984Z,81.90
2018-06-29T02:17:01.097Z,81.10
2018-06-29T02:17:32.208Z,81.10
2018-06-29T02:18:03.324Z,81.10
2018-06-29T02:18:34.443Z,81.10
2018-06-29T02:19:05.552Z,81.10
2018-06-29T02:19:36.688Z,81.10
2018-06-29T02:20:07.808Z,81.10
2018-06-29T02:20:38.916Z,81.10
2018-06-29T02:21:10.025Z,82.00
2018-06-29T02:21:41.149Z,81.10
2018-06-29T02:22:12.263Z,81.10
2018-06-29T02:22:43.372Z,81.20
2018-06-29T02:23:14.479Z,81.20
2018-06-29T02:23:45.602Z,81.10
2018-06-29T02:24:16.715Z,81.10
2018-06-29T02:24:47.854Z,81.10
2018-06-29T02:25:18.973Z,81.90
2018-06-29T02:25:50.089Z,81.10
2018-06-29T02:26:21.203Z,81.20
2018-06-29T02:26:52.313Z,81.20
2018-06-29T02:27:23.424Z,81.10
2018-06-29T02:27:54.528Z,81.20
2018-06-29T02:28:25.636Z,81.20
2018-06-29T02:28:56.744Z,81.20
2018-06-29T02:29:27.880Z,81.20
2018-06-29T02:29:58.996Z,81.20
2018-06-29T02:30:30.150Z,81.20
2018-06-29T02:31:01.237Z,81.20
2018-06-29T02:31:32.364Z,81.20
2018-06-29T02:32:35.020Z,81.20
2018-06-29T02:33:06.128Z,81.20
2018-06-29T02:33:37.236Z,81.20
2018-06-29T02:34:08.349Z,81.20
2018-06-29T02:34:39.493Z,81.20
2018-06-29T02:35:10.606Z,81.20
2018-06-29T02:35:41.726Z,81.20
2018-06-29T02:36:12.832Z,81.20
2018-06-29T02:36:43.940Z,81.20
2018-06-29T02:37:15.052Z,81.20
2018-06-29T02:37:46.160Z,81.20
2018-06-29T02:38:17.284Z,81.20
2018-06-29T02:38:48.412Z,81.20
2018-06-29T02:39:19.524Z,81.20
2018-06-29T02:39:50.668Z,81.30
2018-06-29T02:40:21.785Z,81.30
2018-06-29T02:40:52.900Z,81.30
2018-06-29T02:41:24.017Z,81.20
2018-06-29T02:41:55.125Z,81.30
2018-06-29T02:42:26.234Z,81.30
2018-06-29T02:42:57.353Z,81.30
2018-06-29T02:43:28.472Z,81.30
2018-06-29T02:43:59.588Z,81.30
2018-06-29T02:44:30.704Z,81.30
2018-06-29T02:45:01.854Z,81.30
2018-06-29T02:45:32.969Z,81.30
2018-06-29T02:46:04.082Z,81.30
2018-06-29T02:46:35.192Z,81.40
2018-06-29T02:47:06.307Z,81.40
2018-06-29T02:47:37.429Z,81.30
2018-06-29T02:48:08.539Z,81.30
2018-06-29T02:48:39.656Z,81.30
2018-06-29T02:49:10.772Z,81.30
2018-06-29T02:49:41.928Z,81.30
2018-06-29T02:50:44.561Z,81.30
2018-06-29T02:51:47.181Z,81.00
2018-06-29T02:52:18.296Z,81.40
2018-06-29T02:52:49.408Z,81.40
2018-06-29T02:53:20.520Z,81.40
2018-06-29T02:53:51.642Z,81.40
2018-06-29T02:54:22.784Z,81.40
2018-06-29T02:54:53.932Z,81.30
2018-06-29T02:55:25.057Z,81.40
2018-06-29T02:55:56.172Z,81.30
2018-06-29T02:56:27.291Z,81.40
2018-06-29T02:56:58.404Z,81.40
2018-06-29T02:57:29.516Z,82.10
2018-06-29T02:58:00.627Z,81.40
2018-06-29T02:58:31.741Z,81.40
2018-06-29T02:59:02.852Z,81.40
2018-06-29T02:59:34.072Z,81.40
2018-06-29T03:00:36.739Z,81.70
2018-06-29T03:01:07.852Z,81.40
2018-06-29T03:01:38.961Z,81.40
2018-06-29T03:02:10.076Z,81.40
2018-06-29T03:02:41.189Z,81.40
2018-06-29T03:03:12.305Z,81.40
2018-06-29T03:03:43.416Z,81.40
2018-06-29T03:04:14.532Z,81.40
2018-06-29T03:04:45.640Z,81.20
2018-06-29T03:05:16.782Z,81.40
2018-06-29T03:05:47.896Z,81.40
2018-06-29T03:06:19.014Z,81.40
2018-06-29T03:06:50.124Z,81.40
2018-06-29T03:07:21.239Z,81.40
2018-06-29T03:07:52.358Z,81.40
2018-06-29T03:08:23.468Z,81.40
2018-06-29T03:08:54.577Z,81.40
2018-06-29T03:09:25.699Z,81.30
2018-06-29T03:09:56.845Z,81.40
2018-06-29T03:10:27.965Z,81.40
2018-06-29T03:10:59.078Z,81.40
2018-06-29T03:11:30.276Z,81.40
2018-06-29T03:12:01.390Z,81.40
2018-06-29T03:12:32.497Z,81.40
2018-06-29T03:13:03.609Z,81.40
2018-06-29T03:13:34.720Z,81.40
2018-06-29T03:14:05.828Z,81.40
2018-06-29T03:14:36.936Z,81.40
2018-06-29T03:15:08.072Z,81.40
2018-06-29T03:15:39.185Z,81.40
2018-06-29T03:16:10.296Z,81.40
2018-06-29T03:16:41.419Z,81.40
2018-06-29T03:17:12.529Z,81.40
2018-06-29T03:17:43.644Z,81.40
2018-06-29T03:18:14.760Z,81.40
2018-06-29T03:18:45.867Z,81.40
2018-06-29T03:19:16.982Z,81.40
2018-06-29T03:19:48.101Z,81.40
2018-06-29T03:20:19.254Z,81.40
2018-06-29T03:20:50.373Z,81.40
2018-06-29T03:21:21.489Z,81.40
2018-06-29T03:21:52.616Z,81.40
2018-06-29T03:22:23.729Z,81.40
2018-06-29T03:22:54.840Z,81.40
2018-06-29T03:23:25.953Z,81.40
2018-06-29T03:23:57.068Z,81.40
2018-06-29T03:24:28.176Z,81.40
2018-06-29T03:24:59.288Z,81.40
2018-06-29T03:25:30.433Z,81.40
2018-06-29T03:26:01.561Z,81.40
2018-06-29T03:26:32.668Z,81.40
2018-06-29T03:27:03.785Z,81.40
2018-06-29T03:27:34.898Z,81.40
2018-06-29T03:28:06.024Z,81.40
2018-06-29T03:28:37.137Z,81.40
2018-06-29T03:29:08.255Z,81.40
2018-06-29T03:29:39.360Z,81.40
2018-06-29T03:30:10.498Z,82.20
2018-06-29T03:30:41.616Z,81.40
2018-06-29T03:31:12.725Z,81.40
2018-06-29T03:31:43.841Z,81.40
2018-06-29T03:32:14.948Z,81.40
2018-06-29T03:32:46.060Z,81.40
2018-06-29T03:33:17.166Z,81.50
2018-06-29T03:33:48.284Z,81.10
2018-06-29T03:34:19.397Z,81.40
2018-06-29T03:34:50.508Z,81.40
2018-06-29T03:35:21.645Z,81.40
2018-06-29T03:35:52.756Z,81.40
2018-06-29T03:36:23.863Z,81.40
2018-06-29T03:36:54.971Z,81.40
2018-06-29T03:37:26.084Z,81.40
2018-06-29T03:37:57.202Z,81.50
2018-06-29T03:38:28.324Z,81.40
2018-06-29T03:38:59.436Z,81.40
2018-06-29T03:39:30.545Z,81.40
2018-06-29T03:40:01.655Z,81.40
2018-06-29T03:40:32.866Z,81.80
2018-06-29T03:41:03.930Z,81.40
2018-06-29T03:41:35.037Z,81.40
2018-06-29T03:42:06.152Z,81.40
2018-06-29T03:42:37.268Z,81.40
2018-06-29T03:43:08.388Z,81.50
2018-06-29T03:43:39.501Z,81.50
2018-06-29T03:44:10.612Z,81.40
2018-06-29T03:45:13.304Z,81.50
2018-06-29T03:45:44.419Z,81.50
2018-06-29T03:46:15.536Z,81.50
2018-06-29T03:46:46.657Z,81.50
2018-06-29T03:47:17.770Z,81.50
2018-06-29T03:47:48.886Z,81.50
2018-06-29T03:48:20.000Z,81.50
2018-06-29T03:48:51.107Z,81.50
2018-06-29T03:49:22.225Z,81.50
2018-06-29T03:49:53.348Z,81.50
2018-06-29T03:50:24.489Z,81.50
2018-06-29T03:50:55.597Z,81.50
2018-06-29T03:51:26.703Z,81.50
2018-06-29T03:51:57.978Z,81.50
2018-06-29T03:52:29.127Z,81.50
2018-06-29T03:53:00.236Z,81.50
2018-06-29T03:53:31.353Z,81.50
2018-06-29T03:54:34.017Z,81.50
2018-06-29T03:55:05.128Z,81.50
2018-06-29T03:55:36.266Z,81.50
2018-06-29T03:56:07.381Z,81.50
2018-06-29T03:56:38.493Z,81.50
2018-06-29T03:57:09.614Z,81.50
2018-06-29T03:57:40.728Z,81.50
2018-06-29T03:58:11.845Z,81.50
2018-06-29T03:58:42.963Z,81.50
2018-06-29T03:59:14.081Z,81.50
2018-06-29T03:59:45.198Z,81.50
2018-06-29T04:00:16.317Z,81.80
2018-06-29T04:00:47.457Z,81.50
2018-06-29T04:01:18.572Z,81.50
2018-06-29T04:01:49.684Z,81.50
2018-06-29T04:02:20.796Z,81.50
2018-06-29T04:02:51.912Z,81.50
2018-06-29T04:03:23.084Z,81.50
2018-06-29T04:03:54.148Z,81.60
2018-06-29T04:04:25.257Z,81.50
2018-06-29T04:04:56.380Z,81.50
2018-06-29T04:05:27.521Z,81.50
2018-06-29T04:05:58.634Z,81.60
2018-06-29T04:06:29.760Z,81.50
2018-06-29T04:07:00.872Z,81.60
2018-06-29T04:07:31.976Z,81.60
2018-06-29T04:08:03.109Z,81.60
2018-06-29T04:08:34.225Z,81.50
2018-06-29T04:09:05.337Z,81.60
2018-06-29T04:09:36.444Z,81.60
2018-06-29T04:10:07.551Z,82.40
2018-06-29T04:10:38.713Z,81.50
2018-06-29T04:11:09.867Z,81.60
2018-06-29T04:11:40.994Z,81.60
2018-06-29T04:12:12.109Z,81.60
2018-06-29T04:12:43.690Z,81.60
2018-06-29T04:13:14.884Z,81.60
2018-06-29T04:14:17.507Z,82.30
2018-06-29T04:14:48.624Z,81.60
2018-06-29T04:15:21.572Z,81.60
2018-06-29T04:15:53.383Z,81.70
2018-06-29T04:16:25.223Z,81.70
2018-06-29T04:17:28.856Z,81.70
2018-06-29T04:18:00.497Z,81.60
2018-06-29T04:18:31.680Z,81.60
2018-06-29T04:19:03.370Z,81.60
2018-06-29T04:19:35.833Z,81.70
2018-06-29T04:20:07.575Z,81.70
2018-06-29T04:20:38.968Z,81.70
2018-06-29T04:21:10.655Z,81.70
2018-06-29T04:21:42.193Z,81.70
2018-06-29T04:22:13.370Z,81.70
2018-06-29T04:22:44.492Z,81.70
2018-06-29T04:23:15.625Z,81.70
2018-06-29T04:23:46.732Z,81.70
2018-06-29T04:24:18.249Z,81.70
2018-06-29T04:24:50.711Z,81.70
2018-06-29T04:25:22.455Z,81.70
2018-06-29T04:25:53.625Z,82.50
2018-06-29T04:26:24.749Z,81.80
2018-06-29T04:26:55.860Z,81.70
2018-06-29T04:27:26.977Z,81.80
2018-06-29T04:27:58.512Z,81.80
2018-06-29T04:28:29.696Z,81.80
2018-06-29T04:29:00.808Z,81.80
2018-06-29T04:29:31.926Z,81.80
2018-06-29T04:30:03.048Z,81.80
2018-06-29T04:30:34.190Z,81.80
2018-06-29T04:31:05.305Z,81.80
2018-06-29T04:31:36.417Z,81.70
2018-06-29T04:32:07.532Z,81.70
2018-06-29T04:32:38.685Z,81.70
2018-06-29T04:33:09.767Z,81.50
2018-06-29T04:33:40.886Z,81.40
2018-06-29T04:34:12.006Z,81.20
2018-06-29T04:34:43.130Z,81.20
2018-06-29T04:35:14.244Z,81.00
2018-06-29T04:35:45.498Z,81.20
2018-06-29T04:36:16.863Z,81.10
2018-06-29T04:36:48.432Z,81.00
2018-06-29T04:37:20.074Z,80.90
2018-06-29T04:37:54.019Z,81.00
2018-06-29T04:38:25.712Z,81.00
2018-06-29T04:38:57.661Z,81.10
2018-06-29T04:39:29.508Z,81.00
2018-06-29T04:40:02.685Z,80.90
2018-06-29T04:40:33.842Z,80.90
2018-06-29T04:41:04.983Z,80.70
2018-06-29T04:41:36.101Z,80.50
2018-06-29T04:42:07.221Z,80.50
2018-06-29T04:43:10.384Z,80.70
2018-06-29T04:43:41.823Z,80.50
2018-06-29T04:44:13.462Z,80.50
2018-06-29T04:44:44.644Z,80.60
2018-06-29T04:45:15.756Z,80.50
2018-06-29T04:45:46.908Z,80.60
2018-06-29T04:46:18.025Z,80.60
2018-06-29T04:46:49.141Z,80.50
2018-06-29T04:47:20.256Z,80.50
2018-06-29T04:47:51.364Z,80.50
2018-06-29T04:48:22.481Z,80.50
2018-06-29T04:48:53.593Z,80.50
2018-06-29T04:49:24.780Z,80.50
2018-06-29T04:49:55.836Z,80.50
2018-06-29T04:50:26.958Z,80.40
2018-06-29T04:50:58.096Z,80.50
2018-06-29T04:51:29.216Z,80.50
2018-06-29T04:52:00.344Z,80.40
2018-06-29T04:52:31.464Z,80.40
2018-06-29T04:53:02.572Z,80.40
2018-06-29T04:53:33.695Z,80.40
2018-06-29T04:54:04.802Z,80.40
2018-06-29T04:54:35.912Z,80.40
2018-06-29T04:55:07.029Z,80.40
2018-06-29T04:55:38.421Z,80.30
2018-06-29T04:56:09.858Z,80.40
2018-06-29T04:56:41.504Z,80.40
2018-06-29T04:57:12.669Z,80.30
2018-06-29T04:57:43.787Z,80.30
2018-06-29T04:58:14.895Z,80.30
2018-06-29T04:58:46.009Z,80.20
2018-06-29T04:59:17.508Z,80.20
2018-06-29T04:59:49.199Z,80.30
2018-06-29T05:00:20.944Z,80.30
2018-06-29T05:00:52.636Z,80.30
2018-06-29T05:01:23.845Z,80.30
2018-06-29T05:01:54.956Z,80.30
2018-06-29T05:02:26.063Z,80.20
2018-06-29T05:02:57.180Z,80.30
2018-06-29T05:03:28.292Z,80.30
2018-06-29T05:03:59.411Z,80.40
2018-06-29T05:04:30.605Z,80.30
2018-06-29T05:05:02.134Z,80.40
2018-06-29T05:05:33.572Z,80.50
2018-06-29T05:06:05.247Z,80.50
2018-06-29T05:06:36.422Z,80.50
2018-06-29T05:07:08.086Z,80.50
2018-06-29T05:07:39.264Z,80.50
2018-06-29T05:08:10.376Z,80.50
2018-06-29T05:08:41.494Z,80.50
2018-06-29T05:09:12.609Z,80.50
2018-06-29T05:09:43.720Z,80.50
2018-06-29T05:10:14.830Z,80.50
2018-06-29T05:10:45.945Z,80.40
2018-06-29T05:11:17.096Z,80.50
2018-06-29T05:11:48.231Z,80.50
2018-06-29T05:12:19.345Z,80.50
2018-06-29T05:12:50.467Z,80.50
2018-06-29T05:13:21.585Z,80.60
2018-06-29T05:13:52.699Z,80.60
2018-06-29T05:14:23.811Z,80.60
2018-06-29T05:14:54.928Z,80.60
2018-06-29T05:15:26.086Z,80.60
2018-06-29T05:15:57.188Z,80.70
2018-06-29T05:16:28.325Z,80.70
2018-06-29T05:16:59.444Z,80.70
2018-06-29T05:17:30.561Z,80.70
2018-06-29T05:18:01.676Z,80.80
2018-06-29T05:18:32.791Z,80.80
2018-06-29T05:19:03.900Z,80.80
2018-06-29T05:19:35.012Z,80.80
2018-06-29T05:20:06.129Z,80.80
2018-06-29T05:20:37.242Z,80.80
2018-06-29T05:21:08.384Z,80.80
2018-06-29T05:21:39.488Z,80.80
2018-06-29T05:22:10.592Z,80.80
2018-06-29T05:22:41.712Z,80.80
2018-06-29T05:23:12.824Z,80.80
2018-06-29T05:23:43.942Z,80.70
2018-06-29T05:24:15.064Z,80.80
2018-06-29T05:24:46.182Z,80.80
2018-06-29T05:25:17.291Z,80.70
2018-06-29T05:25:48.400Z,80.90
2018-06-29T05:26:19.555Z,80.80
2018-06-29T05:26:50.673Z,80.80
2018-06-29T05:27:21.795Z,80.80
2018-06-29T05:27:52.908Z,80.70
2018-06-29T05:28:24.024Z,80.70
2018-06-29T05:28:55.133Z,80.70
2018-06-29T05:29:26.248Z,80.70
2018-06-29T05:29:57.369Z,80.70
2018-06-29T05:30:28.493Z,80.70
2018-06-29T05:30:59.603Z,80.80
2018-06-29T05:31:30.735Z,81.40
2018-06-29T05:32:01.853Z,80.70
2018-06-29T05:32:32.960Z,80.70
2018-06-29T05:33:04.072Z,80.70
2018-06-29T05:33:35.188Z,80.70
2018-06-29T05:34:06.296Z,80.80
2018-06-29T05:34:37.400Z,80.70
2018-06-29T05:35:08.579Z,80.70
2018-06-29T05:35:39.693Z,80.80
2018-06-29T05:36:10.812Z,80.70
2018-06-29T05:36:41.948Z,80.70
2018-06-29T05:37:13.071Z,80.40
2018-06-29T05:37:44.180Z,80.70
2018-06-29T05:38:15.291Z,80.70
2018-06-29T05:38:46.485Z,80.70
2018-06-29T05:39:17.592Z,80.70
2018-06-29T05:39:48.700Z,80.70
2018-06-29T05:40:19.816Z,80.40
2018-06-29T05:40:50.932Z,80.70
2018-06-29T05:41:22.148Z,80.60
2018-06-29T05:41:53.204Z,80.60
2018-06-29T05:42:24.308Z,80.60
2018-06-29T05:42:55.420Z,80.60
2018-06-29T05:43:26.528Z,80.60
2018-06-29T05:43:57.637Z,81.40
2018-06-29T05:44:28.756Z,80.60
2018-06-29T05:44:59.865Z,80.50
2018-06-29T05:45:30.976Z,80.50
2018-06-29T05:46:02.085Z,80.50
2018-06-29T05:47:04.944Z,80.50
2018-06-29T05:47:35.976Z,80.50
2018-06-29T05:48:07.084Z,80.50
2018-06-29T05:48:38.200Z,80.80
2018-06-29T05:49:09.375Z,80.50
2018-06-29T05:49:40.455Z,80.50
2018-06-29T05:50:11.571Z,80.50
2018-06-29T05:50:42.679Z,80.50
2018-06-29T05:51:13.792Z,80.50
2018-06-29T05:51:44.956Z,80.50
2018-06-29T05:52:16.064Z,80.50
2018-06-29T05:52:47.176Z,80.40
2018-06-29T05:53:49.835Z,80.50
2018-06-29T05:54:52.504Z,80.00
2018-06-29T05:55:23.617Z,80.40
2018-06-29T05:55:54.733Z,80.50
2018-06-29T05:56:25.845Z,80.50
2018-06-29T05:56:56.980Z,80.50
2018-06-29T05:57:28.121Z,80.50
2018-06-29T05:57:59.224Z,80.50
2018-06-29T05:58:30.332Z,80.50
2018-06-29T05:59:01.449Z,80.50
2018-06-29T05:59:32.576Z,80.50
2018-06-29T06:00:03.696Z,80.50
2018-06-29T06:00:34.811Z,80.50
2018-06-29T06:01:05.929Z,80.50
2018-06-29T06:01:37.071Z,80.50
2018-06-29T06:02:08.265Z,80.50
2018-06-29T06:02:39.321Z,80.50
2018-06-29T06:03:10.431Z,80.50
2018-06-29T06:03:41.546Z,80.50
2018-06-29T06:04:12.651Z,80.50
2018-06-29T06:04:43.829Z,80.50
2018-06-29T06:05:14.900Z,80.50
2018-06-29T06:05:46.015Z,80.50
2018-06-29T06:06:17.120Z,80.60
2018-06-29T06:06:48.262Z,80.50
2018-06-29T06:07:19.377Z,80.60
2018-06-29T06:07:50.505Z,80.60
2018-06-29T06:08:21.617Z,80.60
2018-06-29T06:08:52.727Z,80.60
2018-06-29T06:09:23.837Z,80.60
2018-06-29T06:09:54.944Z,80.60
2018-06-29T06:10:26.063Z,80.60
2018-06-29T06:10:57.179Z,80.60
2018-06-29T06:11:28.296Z,80.60
2018-06-29T06:11:59.597Z,80.60
2018-06-29T06:12:30.708Z,80.60
2018-06-29T06:13:01.833Z,80.60
2018-06-29T06:13:32.944Z,81.30
2018-06-29T06:14:04.071Z,80.60
2018-06-29T06:14:35.192Z,80.80
2018-06-29T06:15:06.304Z,80.60
2018-06-29T06:15:37.424Z,80.60
2018-06-29T06:16:08.613Z,80.60
2018-06-29T06:16:39.707Z,80.60
2018-06-29T06:17:10.820Z,80.60
2018-06-29T06:17:41.937Z,80.60
2018-06-29T06:18:13.052Z,80.60
2018-06-29T06:18:44.169Z,80.60
2018-06-29T06:19:15.284Z,80.60
2018-06-29T06:19:46.393Z,80.60
2018-06-29T06:20:17.504Z,80.60
2018-06-29T06:20:48.619Z,80.60
2018-06-29T06:21:19.728Z,80.60
2018-06-29T06:21:50.919Z,81.30
2018-06-29T06:22:21.992Z,80.60
2018-06-29T06:22:53.112Z,80.60
2018-06-29T06:23:24.224Z,80.60
2018-06-29T06:24:26.884Z,80.70
2018-06-29T06:24:58.005Z,80.70
2018-06-29T06:25:29.129Z,80.60
2018-06-29T06:26:00.241Z,80.60
2018-06-29T06:26:31.357Z,80.60
2018-06-29T06:27:02.498Z,80.60
2018-06-29T06:27:33.620Z,80.50
2018-06-29T06:28:04.736Z,80.60
2018-06-29T06:28:35.850Z,80.60
2018-06-29T06:29:06.961Z,80.60
2018-06-29T06:29:38.076Z,80.60
2018-06-29T06:30:09.196Z,80.60
2018-06-29T06:30:40.313Z,80.60
2018-06-29T06:31:11.441Z,80.60
2018-06-29T06:31:42.556Z,80.60
2018-06-29T06:32:13.664Z,80.60
2018-06-29T06:32:44.785Z,80.60
2018-06-29T06:33:15.998Z,80.60
2018-06-29T06:33:47.035Z,80.60
2018-06-29T06:34:18.160Z,80.60
2018-06-29T06:34:49.267Z,80.60
2018-06-29T06:35:20.380Z,80.60
2018-06-29T06:35:51.492Z,80.60
2018-06-29T06:36:22.605Z,80.50
2018-06-29T06:36:53.744Z,80.50
2018-06-29T06:37:24.856Z,80.50
2018-06-29T06:37:55.971Z,80.50
2018-06-29T06:38:27.084Z,80.50
2018-06-29T06:38:58.192Z,80.60
2018-06-29T06:39:29.314Z,80.70
2018-06-29T06:40:00.432Z,80.60
2018-06-29T06:40:31.631Z,80.60
2018-06-29T06:41:02.761Z,80.50
2018-06-29T06:41:33.913Z,80.60
2018-06-29T06:42:05.006Z,80.60
2018-06-29T06:42:36.131Z,80.60
2018-06-29T06:43:07.244Z,80.60
2018-06-29T06:43:38.357Z,80.60
2018-06-29T06:44:09.467Z,80.60
2018-06-29T06:44:40.575Z,80.60
2018-06-29T06:45:11.685Z,80.60
2018-06-29T06:45:42.812Z,80.60
2018-06-29T06:46:13.928Z,81.40
2018-06-29T06:46:45.035Z,80.80
2018-06-29T06:47:16.159Z,80.80
2018-06-29T06:47:47.624Z,80.90
2018-06-29T06:48:18.732Z,80.80
2018-06-29T06:48:49.840Z,80.70
2018-06-29T06:49:20.956Z,80.70
2018-06-29T06:49:52.068Z,80.60
2018-06-29T06:50:23.181Z,80.60
2018-06-29T06:50:54.310Z,80.60